createdAt,value
2019-02-23T00:02:12.128Z,36.83
2019-02-23T00:04:38.570Z,31.03
2019-02-23T00:07:04.996Z,31.80
2019-02-23T00:09:31.411Z,31.50
2019-02-23T00:11:57.833Z,35.97
2019-02-23T00:14:24.257Z,31.83
2019-02-23T00:16:50.714Z,35.13
2019-02-23T00:19:24.443Z,36.80
2019-02-23T00:21:45.468Z,34.33
2019-02-23T00:24:12.048Z,34.17
2019-02-23T00:26:38.517Z,34.30
2019-02-23T00:29:04.934Z,32.53
2019-02-23T00:31:31.355Z,31.33
2019-02-23T00:33:57.822Z,34.70
2019-02-23T00:36:24.382Z,34.17
2019-02-23T00:38:50.804Z,31.07
2019-02-23T00:41:17.227Z,35.40
2019-02-23T00:43:43.650Z,35.40
2019-02-23T00:46:10.101Z,31.33
2019-02-23T00:48:36.523Z,39.73
2019-02-23T00:51:02.949Z,35.50
2019-02-23T00:53:29.364Z,35.27
2019-02-23T00:55:55.862Z,34.13
2019-02-23T00:58:22.283Z,33.80
2019-02-23T01:00:48.705Z,30.93
2019-02-23T01:03:15.221Z,32.07
2019-02-23T01:05:42.018Z,34.90
2019-02-23T01:08:08.924Z,34.83
2019-02-23T01:10:35.759Z,36.47
2019-02-23T01:13:02.548Z,35.17
2019-02-23T01:15:29.029Z,31.80
2019-02-23T01:17:55.490Z,35.97
2019-02-23T01:20:22.035Z,38.93
2019-02-23T01:22:48.458Z,35.63
2019-02-23T01:25:14.969Z,34.00
2019-02-23T01:27:41.460Z,36.50
2019-02-23T01:30:09.078Z,37.27
2019-02-23T01:32:35.598Z,35.23
2019-02-23T01:35:02.126Z,33.93
2019-02-23T01:37:28.630Z,32.60
2019-02-23T01:39:55.046Z,25.93
2019-02-23T01:42:21.470Z,33.47
2019-02-23T01:44:47.979Z,29.33
2019-02-23T01:47:14.407Z,32.97
2019-02-23T01:49:40.925Z,34.07
2019-02-23T01:52:07.344Z,33.27
2019-02-23T01:54:33.913Z,36.13
2019-02-23T01:57:00.640Z,33.83
2019-02-23T01:59:27.127Z,31.83
2019-02-23T02:01:53.545Z,30.07
2019-02-23T02:04:19.961Z,36.53
2019-02-23T02:06:46.380Z,36.60
2019-02-23T02:09:12.901Z,30.53
2019-02-23T02:11:39.423Z,36.80
2019-02-23T02:14:06.145Z,34.17
2019-02-23T02:16:32.842Z,37.00
2019-02-23T02:18:59.323Z,43.00
2019-02-23T02:21:25.743Z,40.70
2019-02-23T02:23:52.166Z,39.73
2019-02-23T02:26:18.700Z,39.57
2019-02-23T02:28:45.109Z,34.93
2019-02-23T02:31:11.564Z,35.67
2019-02-23T02:34:04.279Z,40.10
2019-02-23T02:36:30.851Z,38.97
2019-02-23T02:38:57.271Z,37.93
2019-02-23T02:41:23.692Z,41.30
2019-02-23T02:43:50.313Z,42.93
2019-02-23T02:46:16.773Z,39.10
2019-02-23T02:48:43.182Z,37.23
2019-02-23T02:51:09.603Z,37.13
2019-02-23T02:53:36.026Z,38.67
2019-02-23T02:56:02.515Z,36.83
2019-02-23T02:58:28.934Z,42.97
2019-02-23T03:00:55.414Z,37.07
2019-02-23T03:03:21.839Z,39.53
2019-02-23T03:05:48.338Z,41.33
2019-02-23T03:08:14.764Z,39.77
2019-02-23T03:10:41.186Z,42.20
2019-02-23T03:13:07.607Z,39.40
2019-02-23T03:15:34.044Z,38.00
2019-02-23T03:18:00.555Z,41.20
2019-02-23T03:20:36.348Z,40.30
2019-02-23T03:22:55.310Z,44.83
2019-02-23T03:25:21.767Z,38.30
2019-02-23T03:27:48.184Z,41.83
2019-02-23T03:30:14.721Z,44.23
2019-02-23T03:32:41.275Z,36.53
2019-02-23T03:35:07.993Z,40.43
2019-02-23T03:37:34.484Z,40.03
2019-02-23T03:40:00.913Z,36.33
2019-02-23T03:42:27.336Z,44.90
2019-02-23T03:44:53.841Z,44.90
2019-02-23T03:47:20.303Z,39.87
2019-02-23T03:49:46.730Z,43.87
2019-02-23T03:52:13.154Z,41.53
2019-02-23T03:54:39.877Z,38.67
2019-02-23T03:57:06.395Z,39.97
2019-02-23T03:59:32.812Z,41.73
2019-02-23T04:01:59.319Z,40.80
2019-02-23T04:04:25.738Z,40.80
2019-02-23T04:06:52.157Z,37.27
2019-02-23T04:09:18.651Z,45.30
2019-02-23T04:11:45.100Z,41.73
2019-02-23T04:14:11.523Z,45.83
2019-02-23T04:16:38.093Z,44.20
2019-02-23T04:19:04.550Z,43.07
2019-02-23T04:21:30.968Z,39.00
2019-02-23T04:23:57.391Z,43.60
2019-02-23T04:26:23.924Z,41.37
2019-02-23T04:28:50.341Z,41.47
2019-02-23T04:31:16.861Z,40.87
2019-02-23T04:33:43.321Z,41.20
2019-02-23T04:36:09.983Z,42.60
2019-02-23T04:38:36.453Z,44.20
2019-02-23T04:41:02.972Z,40.20
2019-02-23T04:43:29.506Z,54.17
2019-02-23T04:45:56.009Z,34.63
2019-02-23T04:48:22.439Z,32.10
2019-02-23T04:50:48.873Z,30.70
2019-02-23T04:53:15.292Z,30.80
2019-02-23T04:55:41.746Z,34.30
2019-02-23T04:58:08.163Z,42.97
2019-02-23T05:00:34.595Z,34.87
2019-02-23T05:03:01.060Z,37.03
2019-02-23T05:05:27.774Z,41.03
2019-02-23T05:07:54.245Z,38.17
2019-02-23T05:10:20.665Z,40.70
2019-02-23T05:12:47.083Z,36.90
2019-02-23T05:15:13.524Z,36.03
2019-02-23T05:17:39.952Z,33.77
2019-02-23T05:20:06.751Z,41.13
2019-02-23T05:22:33.169Z,36.07
2019-02-23T05:24:59.678Z,43.20
2019-02-23T05:27:26.086Z,41.37
2019-02-23T05:29:52.524Z,43.10
2019-02-23T05:32:18.942Z,43.97
2019-02-23T05:34:45.396Z,44.03
2019-02-23T05:37:11.886Z,46.80
2019-02-23T05:39:38.307Z,40.40
2019-02-23T05:42:04.814Z,41.43
2019-02-23T05:44:31.339Z,45.53
2019-02-23T05:46:57.872Z,39.73
2019-02-23T05:49:24.285Z,42.93
2019-02-23T05:51:50.826Z,46.00
2019-02-23T05:54:17.254Z,41.43
2019-02-23T05:56:43.691Z,43.37
2019-02-23T05:59:10.123Z,42.90
2019-02-23T06:01:36.555Z,41.57
2019-02-23T06:04:03.088Z,41.37
2019-02-23T06:06:29.668Z,43.43
2019-02-23T06:08:56.123Z,41.93
2019-02-23T06:11:22.546Z,29.37
2019-02-23T06:13:48.965Z,24.17
2019-02-23T06:16:15.487Z,22.47
2019-02-23T06:18:41.911Z,21.37
2019-02-23T06:21:08.374Z,22.90
2019-02-23T06:23:34.804Z,21.33
2019-02-23T06:26:01.264Z,22.47
2019-02-23T06:28:27.669Z,23.67
2019-02-23T06:30:54.090Z,20.43
2019-02-23T06:33:20.530Z,25.23
2019-02-23T06:35:46.951Z,24.40
2019-02-23T06:38:13.441Z,21.77
2019-02-23T06:40:39.885Z,26.07
2019-02-23T06:43:06.319Z,24.43
2019-02-23T06:45:32.779Z,22.97
2019-02-23T06:47:59.223Z,23.67
2019-02-23T06:50:25.651Z,20.87
2019-02-23T06:52:52.076Z,23.13
2019-02-23T06:55:18.522Z,22.67
2019-02-23T06:57:44.953Z,26.60
2019-02-23T07:00:13.586Z,31.73
2019-02-23T07:02:40.118Z,26.17
2019-02-23T07:05:06.633Z,24.07
2019-02-23T07:07:33.059Z,22.80
2019-02-23T07:09:59.682Z,26.13
2019-02-23T07:12:26.120Z,22.67
2019-02-23T07:14:52.656Z,26.67
2019-02-23T07:17:19.073Z,24.53
2019-02-23T07:19:45.499Z,30.80
2019-02-23T07:22:15.466Z,28.97
2019-02-23T07:24:40.347Z,22.40
2019-02-23T07:27:06.771Z,25.97
2019-02-23T07:29:33.218Z,20.43
2019-02-23T07:31:59.650Z,30.40
2019-02-23T07:34:26.074Z,24.67
2019-02-23T07:36:52.498Z,23.03
2019-02-23T07:39:19.027Z,23.63
2019-02-23T07:41:45.484Z,18.77
2019-02-23T07:44:11.905Z,18.57
2019-02-23T07:46:38.425Z,19.80
2019-02-23T07:49:04.899Z,23.07
2019-02-23T07:51:31.321Z,23.20
2019-02-23T07:53:57.782Z,22.57
2019-02-23T07:56:24.282Z,22.70
2019-02-23T07:58:50.722Z,19.57
2019-02-23T08:01:38.983Z,18.23
2019-02-23T08:03:53.198Z,19.93
2019-02-23T08:06:19.795Z,21.17
2019-02-23T08:08:46.478Z,23.93
2019-02-23T08:11:12.960Z,23.40
2019-02-23T08:13:40.706Z,22.13
2019-02-23T08:16:07.550Z,28.47
2019-02-23T08:18:34.075Z,23.97
2019-02-23T08:21:00.513Z,27.13
2019-02-23T08:23:27.034Z,31.20
2019-02-23T08:25:53.563Z,33.73
2019-02-23T08:28:21.919Z,29.00
2019-02-23T08:30:48.340Z,32.27
2019-02-23T08:33:14.758Z,34.67
2019-02-23T08:35:41.266Z,31.47
2019-02-23T08:38:07.743Z,34.50
2019-02-23T08:40:34.190Z,35.43
2019-02-23T08:43:00.609Z,40.50
2019-02-23T08:45:27.238Z,43.67
2019-02-23T08:47:56.283Z,34.77
2019-02-23T08:50:22.065Z,37.43
2019-02-23T08:52:50.327Z,35.47
2019-02-23T08:55:16.932Z,35.13
2019-02-23T08:57:43.358Z,34.60
2019-02-23T09:00:15.723Z,39.93
2019-02-23T09:02:42.241Z,39.53
2019-02-23T09:05:09.798Z,34.77
2019-02-23T09:07:36.292Z,34.57
2019-02-23T09:10:04.116Z,38.27
2019-02-23T09:12:30.538Z,41.33
2019-02-23T09:14:56.983Z,34.00
2019-02-23T09:17:23.481Z,38.03
2019-02-23T09:19:50.016Z,36.77
2019-02-23T09:22:16.438Z,38.70
2019-02-23T09:24:43.002Z,36.37
2019-02-23T09:27:09.428Z,37.40
2019-02-23T09:29:35.861Z,36.53
2019-02-23T09:32:02.281Z,33.63
2019-02-23T09:34:28.693Z,35.20
2019-02-23T09:36:55.122Z,37.17
2019-02-23T09:39:21.541Z,34.43
2019-02-23T09:41:47.962Z,34.07
2019-02-23T09:44:14.435Z,37.37
2019-02-23T09:46:40.926Z,30.00
2019-02-23T09:49:07.382Z,34.47
2019-02-23T09:51:33.814Z,36.10
2019-02-23T09:54:00.254Z,34.47
2019-02-23T09:56:27.683Z,32.63
2019-02-23T09:58:54.117Z,33.47
2019-02-23T10:01:20.541Z,34.90
2019-02-23T10:03:46.962Z,33.43
2019-02-23T10:06:13.520Z,35.23
2019-02-23T10:08:40.029Z,31.47
2019-02-23T10:11:06.545Z,31.60
2019-02-23T10:13:32.970Z,35.20
2019-02-23T10:15:59.485Z,33.63
2019-02-23T10:18:25.967Z,35.77
2019-02-23T10:20:52.387Z,40.43
2019-02-23T10:23:21.913Z,32.67
2019-02-23T10:25:47.322Z,33.63
2019-02-23T10:28:13.748Z,34.47
2019-02-23T10:30:40.169Z,34.17
2019-02-23T10:33:06.597Z,33.80
2019-02-23T10:35:33.078Z,34.97
2019-02-23T10:37:59.619Z,33.90
2019-02-23T10:40:26.042Z,33.40
2019-02-23T10:42:52.484Z,32.27
2019-02-23T10:45:19.045Z,39.13
2019-02-23T10:47:45.465Z,37.00
2019-02-23T10:50:13.632Z,35.30
2019-02-23T10:52:40.159Z,35.80
2019-02-23T10:55:13.635Z,32.83
2019-02-23T10:57:40.053Z,37.60
2019-02-23T11:00:11.681Z,33.53
2019-02-23T11:02:38.103Z,35.80
2019-02-23T11:05:06.466Z,38.60
2019-02-23T11:07:32.890Z,36.13
2019-02-23T11:09:59.317Z,35.27
2019-02-23T11:12:25.742Z,32.07
2019-02-23T11:14:52.194Z,38.07
2019-02-23T11:17:18.616Z,35.87
2019-02-23T11:19:45.111Z,33.33
2019-02-23T11:22:11.625Z,32.93
2019-02-23T11:24:38.134Z,39.07
2019-02-23T11:27:04.596Z,34.93
2019-02-23T11:29:31.034Z,35.40
2019-02-23T11:31:57.462Z,34.23
2019-02-23T11:34:23.975Z,34.47
2019-02-23T11:36:50.412Z,30.90
2019-02-23T11:39:16.833Z,33.17
2019-02-23T11:41:43.263Z,37.47
2019-02-23T11:44:09.685Z,36.60
2019-02-23T11:46:36.135Z,31.30
2019-02-23T11:49:02.557Z,33.07
2019-02-23T11:51:29.047Z,31.73
2019-02-23T11:53:55.515Z,27.87
2019-02-23T11:56:22.149Z,32.60
2019-02-23T11:58:48.604Z,34.63
2019-02-23T12:01:15.173Z,34.37
2019-02-23T12:03:41.671Z,34.40
2019-02-23T12:06:08.120Z,31.83
2019-02-23T12:08:34.541Z,29.90
2019-02-23T12:11:00.969Z,35.97
2019-02-23T12:13:27.386Z,28.33
2019-02-23T12:15:53.853Z,30.03
2019-02-23T12:18:20.269Z,28.97
2019-02-23T12:20:46.690Z,31.53
2019-02-23T12:23:13.184Z,29.00
2019-02-23T12:25:39.738Z,33.00
2019-02-23T12:28:06.276Z,31.03
2019-02-23T12:30:32.936Z,32.87
2019-02-23T12:32:59.434Z,31.90
2019-02-23T12:35:25.937Z,30.80
2019-02-23T12:37:52.369Z,29.10
2019-02-23T12:40:18.788Z,28.40
2019-02-23T12:42:45.518Z,28.40
2019-02-23T12:45:12.790Z,27.90
2019-02-23T12:47:39.223Z,31.17
2019-02-23T12:50:08.775Z,25.20
2019-02-23T12:52:35.180Z,28.37
2019-02-23T12:55:01.743Z,24.00
2019-02-23T12:57:28.163Z,31.57
2019-02-23T12:59:54.686Z,27.07
2019-02-23T13:02:21.256Z,25.70
2019-02-23T13:04:47.860Z,26.37
2019-02-23T13:07:14.287Z,26.43
2019-02-23T13:09:42.032Z,26.87
2019-02-23T13:12:12.046Z,32.13
2019-02-23T13:14:58.920Z,31.37
2019-02-23T13:17:44.264Z,29.63
2019-02-23T13:20:32.615Z,29.70
2019-02-23T13:23:28.484Z,33.87
2019-02-23T13:26:04.659Z,27.17
2019-02-23T13:28:40.519Z,26.57
2019-02-23T13:31:16.395Z,27.07
2019-02-23T13:34:03.015Z,28.20
2019-02-23T13:36:45.026Z,30.87
2019-02-23T13:39:21.090Z,26.57
2019-02-23T13:41:51.153Z,28.07
2019-02-23T13:44:36.242Z,27.80
2019-02-23T13:47:15.343Z,26.53
2019-02-23T13:50:03.715Z,26.50
2019-02-23T13:52:42.705Z,29.03
2019-02-23T13:55:17.672Z,28.20
2019-02-23T13:57:47.705Z,25.37
2019-02-23T14:00:23.637Z,29.03
2019-02-23T14:02:59.728Z,25.53
2019-02-23T14:05:46.802Z,30.50
2019-02-23T14:08:35.146Z,31.10
2019-02-23T14:11:23.549Z,27.80
2019-02-23T14:13:53.598Z,25.67
2019-02-23T14:16:41.899Z,27.17
2019-02-23T14:19:18.134Z,26.30
2019-02-23T14:22:12.186Z,69.00
2019-02-23T14:24:50.024Z,25.93
2019-02-23T14:27:23.196Z,29.30
2019-02-23T14:29:53.310Z,24.07
2019-02-23T14:32:26.403Z,27.67
2019-02-23T14:35:11.734Z,27.40
2019-02-23T14:37:50.982Z,28.30
2019-02-23T14:40:36.359Z,28.43
2019-02-23T14:43:09.624Z,29.70
2019-02-23T14:45:50.458Z,22.70
2019-02-23T14:48:23.182Z,25.00
2019-02-23T14:51:26.595Z,26.20
2019-02-23T14:53:59.648Z,26.83
2019-02-23T14:56:39.035Z,30.00
2019-02-23T14:59:18.161Z,28.23
2019-02-23T15:01:51.224Z,28.53
2019-02-23T15:04:27.461Z,31.13
2019-02-23T15:07:00.427Z,31.00
2019-02-23T15:09:33.605Z,27.33
2019-02-23T15:12:25.053Z,26.47
2019-02-23T15:14:57.946Z,29.97
2019-02-23T15:18:01.406Z,28.27
2019-02-23T15:20:43.621Z,27.33
2019-02-23T15:23:33.208Z,25.53
2019-02-23T15:26:33.574Z,30.23
2019-02-23T15:29:18.621Z,26.37
2019-02-23T15:32:03.491Z,24.70
2019-02-23T15:34:52.015Z,29.77
2019-02-23T15:37:43.238Z,33.03
2019-02-23T15:40:25.481Z,27.20
2019-02-23T15:43:10.622Z,28.30
2019-02-23T15:45:49.755Z,25.97
2019-02-23T15:48:19.925Z,27.17
2019-02-23T15:50:46.475Z,28.27
2019-02-23T15:53:12.967Z,29.50
2019-02-23T15:55:39.522Z,31.10
2019-02-23T15:58:06.055Z,27.53
2019-02-23T16:00:34.929Z,27.40
2019-02-23T16:03:00.962Z,26.80
2019-02-23T16:05:27.530Z,28.27
2019-02-23T16:07:53.970Z,27.00
2019-02-23T16:10:20.677Z,28.87
2019-02-23T16:12:47.548Z,23.87
2019-02-23T16:15:14.212Z,23.67
2019-02-23T16:17:40.942Z,27.10
2019-02-23T16:20:07.475Z,27.33
2019-02-23T16:22:33.902Z,23.50
2019-02-23T16:25:00.439Z,26.20
2019-02-23T16:27:26.967Z,26.17
2019-02-23T16:29:53.500Z,26.37
2019-02-23T16:32:20.279Z,28.07
2019-02-23T16:34:46.763Z,31.10
2019-02-23T16:37:13.193Z,24.93
2019-02-23T16:39:40.569Z,28.17
2019-02-23T16:42:07.296Z,24.23
2019-02-23T16:44:33.832Z,23.40
2019-02-23T16:47:00.384Z,26.57
2019-02-23T16:49:26.925Z,24.80
2019-02-23T16:51:53.338Z,24.47
2019-02-23T16:54:19.914Z,26.50
2019-02-23T16:56:46.394Z,22.53
2019-02-23T16:59:12.827Z,28.17
2019-02-23T17:01:39.253Z,25.97
2019-02-23T17:04:06.270Z,27.97
2019-02-23T17:06:33.045Z,26.67
2019-02-23T17:08:59.581Z,26.33
2019-02-23T17:11:26.116Z,30.30
2019-02-23T17:13:52.554Z,26.97
2019-02-23T17:16:19.002Z,23.57
2019-02-23T17:18:45.432Z,27.77
2019-02-23T17:21:11.978Z,27.43
2019-02-23T17:23:38.502Z,29.63
2019-02-23T17:26:05.054Z,26.73
2019-02-23T17:28:31.557Z,26.70
2019-02-23T17:30:57.979Z,25.60
2019-02-23T17:33:27.787Z,24.27
2019-02-23T17:35:52.874Z,25.97
2019-02-23T17:38:19.295Z,25.30
2019-02-23T17:40:45.869Z,23.87
2019-02-23T17:43:12.468Z,26.57
2019-02-23T17:45:38.989Z,27.33
2019-02-23T17:48:05.547Z,22.10
2019-02-23T17:50:32.198Z,24.00
2019-02-23T17:52:58.631Z,25.03
2019-02-23T17:55:25.152Z,26.77
2019-02-23T17:57:51.672Z,23.73
2019-02-23T18:00:19.903Z,23.53
2019-02-23T18:02:46.476Z,23.83
2019-02-23T18:05:13.102Z,25.90
2019-02-23T18:07:39.735Z,24.30
2019-02-23T18:10:06.267Z,25.97
2019-02-23T18:12:32.678Z,25.17
2019-02-23T18:14:59.154Z,24.60
2019-02-23T18:17:25.581Z,20.63
2019-02-23T18:19:52.017Z,20.80
2019-02-23T18:22:18.527Z,21.70
2019-02-23T18:24:44.987Z,21.27
2019-02-23T18:27:11.412Z,25.13
2019-02-23T18:29:37.888Z,25.13
2019-02-23T18:32:04.286Z,21.53
2019-02-23T18:34:31.896Z,21.73
2019-02-23T18:36:58.764Z,21.90
2019-02-23T18:39:25.660Z,20.73
2019-02-23T18:41:52.078Z,22.07
2019-02-23T18:44:18.512Z,19.63
2019-02-23T18:46:44.931Z,23.20
2019-02-23T18:49:11.359Z,22.33
2019-02-23T18:51:37.966Z,23.63
2019-02-23T18:54:04.401Z,24.90
2019-02-23T18:56:30.879Z,22.67
2019-02-23T18:58:58.394Z,21.93
2019-02-23T19:01:25.497Z,19.73
2019-02-23T19:03:52.423Z,23.93
2019-02-23T19:06:19.477Z,20.60
2019-02-23T19:08:46.432Z,21.53
2019-02-23T19:11:13.372Z,21.47
2019-02-23T19:13:40.429Z,19.47
2019-02-23T19:16:07.669Z,19.90
2019-02-23T19:18:34.906Z,22.03
2019-02-23T19:21:01.923Z,20.73
2019-02-23T19:23:29.105Z,20.93
2019-02-23T19:25:56.118Z,20.23
2019-02-23T19:28:23.171Z,23.20
2019-02-23T19:30:50.070Z,25.50
2019-02-23T19:33:17.260Z,19.37
2019-02-23T19:35:44.396Z,16.93
2019-02-23T19:38:11.595Z,18.83
2019-02-23T19:40:38.878Z,16.93
2019-02-23T19:43:06.400Z,18.43
2019-02-23T19:45:33.690Z,17.83
2019-02-23T19:48:00.764Z,17.87
2019-02-23T19:50:31.154Z,21.63
2019-02-23T19:52:58.174Z,18.97
2019-02-23T19:55:27.094Z,22.70
2019-02-23T19:57:53.834Z,18.67
2019-02-23T20:00:20.624Z,17.70
2019-02-23T20:02:47.322Z,19.63
2019-02-23T20:05:14.821Z,19.97
2019-02-23T20:07:41.529Z,21.30
2019-02-23T20:10:09.055Z,19.53
2019-02-23T20:12:35.543Z,20.53
2019-02-23T20:15:02.444Z,20.80
2019-02-23T20:17:28.904Z,20.17
2019-02-23T20:19:55.417Z,20.17
2019-02-23T20:22:21.854Z,17.97
2019-02-23T20:24:48.393Z,19.60
2019-02-23T20:27:16.012Z,18.40
2019-02-23T20:29:42.613Z,19.53
2019-02-23T20:32:09.033Z,17.87
2019-02-23T20:34:35.572Z,18.33
2019-02-23T20:37:02.098Z,20.33
2019-02-23T20:39:28.617Z,19.83
2019-02-23T20:41:55.077Z,19.10
2019-02-23T20:44:21.545Z,20.40
2019-02-23T20:46:47.968Z,22.07
2019-02-23T20:49:14.390Z,20.03
2019-02-23T20:51:40.904Z,23.17
2019-02-23T20:54:07.321Z,19.93
2019-02-23T20:56:33.978Z,19.63
2019-02-23T20:59:00.407Z,28.80
2019-02-23T21:01:26.831Z,27.60
2019-02-23T21:03:53.337Z,18.67
2019-02-23T21:06:19.874Z,18.13
2019-02-23T21:08:46.615Z,18.97
2019-02-23T21:11:13.125Z,17.87
2019-02-23T21:13:39.622Z,15.73
2019-02-23T21:16:06.151Z,14.27
2019-02-23T21:18:32.591Z,16.73
2019-02-23T21:20:59.022Z,19.50
2019-02-23T21:23:25.477Z,17.57
2019-02-23T21:25:51.996Z,15.07
2019-02-23T21:28:18.533Z,17.23
2019-02-23T21:30:44.961Z,19.23
2019-02-23T21:33:11.487Z,20.87
2019-02-23T21:35:37.948Z,19.60
2019-02-23T21:38:04.416Z,18.60
2019-02-23T21:40:30.836Z,20.80
2019-02-23T21:42:57.264Z,21.50
2019-02-23T21:45:23.808Z,23.57
2019-02-23T21:47:50.227Z,22.37
2019-02-23T21:50:16.642Z,21.93
2019-02-23T21:52:43.068Z,22.53
2019-02-23T21:55:09.510Z,27.87
2019-02-23T21:57:35.921Z,22.40
2019-02-23T22:00:03.944Z,21.27
2019-02-23T22:02:30.371Z,25.77
2019-02-23T22:04:56.889Z,23.30
2019-02-23T22:07:23.388Z,27.50
2019-02-23T22:09:49.842Z,22.27
2019-02-23T22:12:16.341Z,20.70
2019-02-23T22:14:42.819Z,19.73
2019-02-23T22:17:09.312Z,17.30
2019-02-23T22:19:35.736Z,18.77
2019-02-23T22:22:02.157Z,18.60
2019-02-23T22:24:28.592Z,19.57
2019-02-23T22:26:55.037Z,19.60
2019-02-23T22:29:21.461Z,19.33
2019-02-23T22:31:47.882Z,20.27
2019-02-23T22:34:14.306Z,25.27
2019-02-23T22:36:40.827Z,26.83
2019-02-23T22:39:07.331Z,28.20
2019-02-23T22:41:33.757Z,28.10
2019-02-23T22:44:00.185Z,23.80
2019-02-23T22:46:26.662Z,21.10
2019-02-23T22:48:53.155Z,21.50
2019-02-23T22:51:19.612Z,16.83
2019-02-23T22:53:46.051Z,23.30
2019-02-23T22:56:12.497Z,21.77
2019-02-23T22:58:38.927Z,22.87
2019-02-23T23:01:05.542Z,25.87
2019-02-23T23:03:31.959Z,23.67
2019-02-23T23:05:58.676Z,25.00
2019-02-23T23:08:25.173Z,23.47
2019-02-23T23:10:51.592Z,24.00
2019-02-23T23:13:18.006Z,21.83
2019-02-23T23:15:44.476Z,21.40
2019-02-23T23:18:10.912Z,23.40
2019-02-23T23:20:37.696Z,25.60
2019-02-23T23:23:04.211Z,27.70
2019-02-23T23:25:30.714Z,21.33
2019-02-23T23:27:57.139Z,20.47
2019-02-23T23:30:23.585Z,23.10
2019-02-23T23:32:50.010Z,20.20
2019-02-23T23:35:16.449Z,29.03
2019-02-23T23:37:42.885Z,22.63
2019-02-23T23:40:09.508Z,18.77
2019-02-23T23:42:35.954Z,19.07
2019-02-23T23:45:03.496Z,22.07
2019-02-23T23:47:29.919Z,24.63
2019-02-23T23:49:56.341Z,24.60
2019-02-23T23:52:22.808Z,21.53
2019-02-23T23:54:49.250Z,23.73
2019-02-23T23:57:15.679Z,19.37
2019-02-23T23:59:42.105Z,22.87
